Time;durP1;ratioP1;P1;durP2;ratioP2;P2;SDS_P1;SDS_P2;PMS_P1;PMS_P2;Temp;Humidity;BMP_temperature;BMP_pressure;BME280_temperature;BME280_humidity;BME280_pressure;Samples;Min_cycle;Max_cycle;Signal;HPM_P1;HPM_P2
2023/03/11 00:01:53;;;;;;;7.47;4.70;;;0.70;99.90;;;;;;5024673;28;20424;-63
2023/03/11 00:04:21;;;;;;;6.30;4.90;;;0.70;99.90;;;;;;5013673;28;20475;-63
2023/03/11 00:06:48;;;;;;;6.15;4.57;;;0.70;99.90;;;;;;5031845;28;20422;-61
2023/03/11 00:09:14;;;;;;;6.35;4.78;;;0.80;99.90;;;;;;5032049;28;20419;-62
2023/03/11 00:11:41;;;;;;;8.13;5.05;;;0.80;99.90;;;;;;5031947;28;20921;-63
2023/03/11 00:14:08;;;;;;;6.03;4.50;;;0.80;99.90;;;;;;5027900;28;20421;-63
2023/03/11 00:16:34;;;;;;;6.23;4.47;;;0.80;99.90;;;;;;5028334;28;20419;-62
2023/03/11 00:19:01;;;;;;;5.25;4.43;;;0.80;99.90;;;;;;5021021;28;20421;-63
2023/03/11 00:21:29;;;;;;;6.53;4.70;;;0.70;99.90;;;;;;5012719;28;20827;-63
2023/03/11 00:23:59;;;;;;;7.93;5.00;;;0.70;99.90;;;;;;5031637;28;20419;-62
2023/03/11 00:26:26;;;;;;;6.38;4.38;;;0.80;99.90;;;;;;5031707;28;20419;-62
2023/03/11 00:28:54;;;;;;;;;;;0.70;99.90;;;;;;5031903;28;20415;-61
2023/03/11 00:31:21;;;;;;;5.50;4.20;;;0.70;99.90;;;;;;5031560;28;20461;-62
2023/03/11 00:33:48;;;;;;;5.53;3.92;;;0.80;99.90;;;;;;5015735;28;20416;-62
2023/03/11 00:36:22;;;;;;;5.88;4.20;;;0.80;99.90;;;;;;5013411;28;20412;-63
2023/03/11 00:38:50;;;;;;;5.93;4.13;;;0.80;99.90;;;;;;5013504;28;20465;-63
2023/03/11 00:41:17;;;;;;;7.10;4.40;;;0.80;99.90;;;;;;5012461;28;20421;-62
2023/03/11 00:43:44;;;;;;;5.55;4.55;;;0.90;99.90;;;;;;5017474;28;20906;-62
2023/03/11 00:46:10;;;;;;;6.57;4.57;;;0.90;99.90;;;;;;5028595;28;20514;-61
2023/03/11 00:48:37;;;;;;;6.45;3.88;;;0.90;99.90;;;;;;5018706;28;20411;-62
2023/03/11 00:51:06;;;;;;;6.18;3.80;;;1.00;99.90;;;;;;5011199;28;21002;-63
2023/03/11 00:53:33;;;;;;;8.37;4.30;;;1.00;99.90;;;;;;5031593;28;20487;-63
2023/03/11 00:56:06;;;;;;;7.32;4.28;;;0.90;99.90;;;;;;5034070;28;20526;-63
2023/03/11 00:58:34;;;;;;;6.30;4.28;;;1.00;99.90;;;;;;5030869;28;20446;-63
2023/03/11 01:01:01;;;;;;;4.85;3.63;;;0.80;99.90;;;;;;5040217;28;20498;-63
2023/03/11 01:03:28;;;;;;;6.10;4.07;;;0.80;99.90;;;;;;5030994;28;20415;-63
2023/03/11 01:05:54;;;;;;;6.88;4.18;;;0.90;99.90;;;;;;5025922;28;20413;-63
2023/03/11 01:08:21;;;;;;;5.20;3.50;;;1.00;99.90;;;;;;5024492;28;20902;-63
2023/03/11 01:10:48;;;;;;;4.63;3.55;;;0.90;99.90;;;;;;5030670;28;20426;-63
2023/03/11 01:13:16;;;;;;;5.25;3.50;;;1.00;99.90;;;;;;5019564;28;20875;-63
2023/03/11 01:15:42;;;;;;;7.38;4.32;;;1.00;99.90;;;;;;5022868;28;20956;-63
2023/03/11 01:18:09;;;;;;;5.72;3.70;;;1.00;99.90;;;;;;5025482;28;20886;-63
2023/03/11 01:20:37;;;;;;;5.63;3.50;;;1.00;99.90;;;;;;5010756;28;20421;-63
2023/03/11 01:23:05;;;;;;;6.13;3.67;;;1.00;99.90;;;;;;5020387;28;20520;-63
2023/03/11 01:25:31;;;;;;;5.80;3.78;;;0.90;99.90;;;;;;5030524;28;20480;-63
2023/03/11 01:27:58;;;;;;;5.93;3.20;;;0.90;99.90;;;;;;5030431;28;20886;-63
2023/03/11 01:30:28;;;;;;;7.30;3.50;;;0.80;99.90;;;;;;5030439;28;20423;-63
2023/03/11 01:32:55;;;;;;;6.35;3.50;;;0.90;99.90;;;;;;5030733;28;20414;-63
2023/03/11 01:35:24;;;;;;;6.82;3.78;;;0.80;99.90;;;;;;5030165;28;20464;-63
2023/03/11 01:37:52;;;;;;;7.43;3.60;;;0.70;99.90;;;;;;5030242;28;20959;-63
2023/03/11 01:40:21;;;;;;;6.53;3.33;;;0.90;99.90;;;;;;5018184;28;20417;-63
2023/03/11 01:42:48;;;;;;;6.25;3.60;;;0.80;99.90;;;;;;5010608;28;20474;-63
2023/03/11 01:45:44;;;;;;;5.72;3.10;;;0.90;99.90;;;;;;5022599;28;20446;-63
2023/03/11 01:48:12;;;;;;;8.02;3.50;;;0.90;99.90;;;;;;5004485;28;20899;-63
2023/03/11 01:50:42;;;;;;;5.18;3.42;;;1.10;99.90;;;;;;5022078;28;20503;-63
2023/03/11 01:53:10;;;;;;;5.80;3.10;;;1.10;99.90;;;;;;5033897;28;20423;-63
2023/03/11 01:55:38;;;;;;;7.07;3.17;;;1.10;99.90;;;;;;5025732;28;20821;-63
2023/03/11 01:58:07;;;;;;;7.72;3.60;;;1.00;99.90;;;;;;5034046;28;20469;-63
2023/03/11 02:00:35;;;;;;;6.70;4.20;;;0.90;99.90;;;;;;5034726;28;20415;-63
2023/03/11 02:03:09;;;;;;;8.67;4.30;;;0.80;99.90;;;;;;5022720;28;20887;-63
2023/03/11 02:05:39;;;;;;;8.03;4.17;;;0.90;99.90;;;;;;5023120;28;20461;-63
2023/03/11 02:08:07;;;;;;;7.88;4.60;;;0.90;99.90;;;;;;5017078;28;20420;-63
2023/03/11 02:10:34;;;;;;;7.97;4.30;;;1.00;99.90;;;;;;5013950;28;20486;-63
2023/03/11 02:13:03;;;;;;;8.45;4.68;;;1.10;99.90;;;;;;5027022;28;20402;-63
2023/03/11 02:15:30;;;;;;;5.90;3.97;;;1.00;99.90;;;;;;5034276;28;20952;-63
2023/03/11 02:17:58;;;;;;;6.70;3.90;;;1.00;99.90;;;;;;5029483;28;20413;-63
2023/03/11 02:20:36;;;;;;;10.63;4.60;;;1.00;99.90;;;;;;5024265;28;20415;-63
2023/03/11 02:23:04;;;;;;;9.15;4.57;;;0.80;99.90;;;;;;5033615;28;20825;-63
2023/03/11 02:25:37;;;;;;;10.85;4.50;;;0.80;99.90;;;;;;5033751;28;20824;-63
2023/03/11 02:28:08;;;;;;;9.13;3.95;;;0.70;99.90;;;;;;5033375;28;20905;-63
2023/03/11 02:30:35;;;;;;;10.75;4.07;;;0.70;99.90;;;;;;5033731;28;20419;-62
2023/03/11 02:33:03;;;;;;;9.15;3.65;;;0.70;99.90;;;;;;5023951;28;20892;-63
2023/03/11 02:35:31;;;;;;;10.07;3.58;;;0.80;99.90;;;;;;5028814;28;20415;-63
2023/03/11 02:37:57;;;;;;;7.35;3.70;;;0.90;99.90;;;;;;5022368;28;20501;-63
2023/03/11 02:40:47;;;;;;;10.32;4.13;;;0.80;99.90;;;;;;5030272;28;20420;-63
2023/03/11 02:43:17;;;;;;;7.53;3.60;;;0.80;99.90;;;;;;5013732;28;20507;-63
2023/03/11 02:45:46;;;;;;;8.93;3.45;;;0.70;99.90;;;;;;5013833;28;20463;-63
2023/03/11 02:48:15;;;;;;;8.57;3.40;;;0.60;99.90;;;;;;5013630;28;20472;-63
2023/03/11 02:50:45;;;;;;;7.93;3.40;;;0.70;99.90;;;;;;5013305;28;20420;-63
2023/03/11 02:53:12;;;;;;;9.15;3.38;;;0.70;99.90;;;;;;5013907;28;20417;-63
2023/03/11 02:55:39;;;;;;;8.15;3.15;;;0.70;99.90;;;;;;5026558;28;20426;-62
2023/03/11 02:58:05;;;;;;;9.38;3.53;;;0.80;99.90;;;;;;5026287;28;20428;-62
2023/03/11 03:00:33;;;;;;;9.30;3.90;;;0.80;99.90;;;;;;5013760;28;20470;-62
2023/03/11 03:03:00;;;;;;;9.20;4.35;;;0.70;99.90;;;;;;5013540;28;20417;-63
2023/03/11 03:05:27;;;;;;;9.82;3.83;;;0.70;99.90;;;;;;5031845;28;20419;-62
2023/03/11 03:07:56;;;;;;;9.50;3.80;;;0.70;99.90;;;;;;5016093;28;21390;-63
2023/03/11 03:10:23;;;;;;;9.80;3.60;;;0.70;99.90;;;;;;5027763;28;20472;-62
2023/03/11 03:12:49;;;;;;;12.00;3.92;;;0.60;99.90;;;;;;5018218;28;20776;-63
2023/03/11 03:15:17;;;;;;;11.40;3.97;;;0.60;99.90;;;;;;5021929;28;20419;-63
2023/03/11 03:17:45;;;;;;;9.95;3.35;;;0.50;99.90;;;;;;5017357;28;20467;-62
2023/03/11 03:20:13;;;;;;;12.70;3.90;;;0.50;99.90;;;;;;5026387;28;20476;-63
2023/03/11 03:22:41;;;;;;;8.75;3.17;;;0.50;99.90;;;;;;5032830;28;20411;-63
2023/03/11 03:25:09;;;;;;;10.30;3.67;;;0.50;99.90;;;;;;5032210;28;20415;-62
2023/03/11 03:27:36;;;;;;;11.00;3.15;;;0.60;99.90;;;;;;5034059;28;20415;-63
2023/03/11 03:30:03;;;;;;;8.55;3.17;;;0.60;99.90;;;;;;5020065;28;20836;-63
2023/03/11 03:32:30;;;;;;;11.35;3.60;;;0.60;99.90;;;;;;5026461;28;20966;-63
2023/03/11 03:34:58;;;;;;;9.13;3.28;;;0.60;99.90;;;;;;5028132;28;20416;-62
2023/03/11 03:37:25;;;;;;;7.20;3.13;;;0.70;99.90;;;;;;5012811;28;20475;-63
2023/03/11 03:39:53;;;;;;;10.00;3.10;;;0.70;99.90;;;;;;5012340;28;20412;-63
2023/03/11 03:42:19;;;;;;;10.43;3.50;;;0.70;99.90;;;;;;5025599;28;20415;-63
2023/03/11 03:44:46;;;;;;;10.73;2.97;;;0.50;99.90;;;;;;5024562;28;20411;-63
2023/03/11 03:47:13;;;;;;;9.27;3.10;;;0.50;99.90;;;;;;5032047;28;20418;-62
2023/03/11 03:49:39;;;;;;;10.48;3.53;;;0.60;99.90;;;;;;5032207;28;20407;-63
2023/03/11 03:52:09;;;;;;;12.65;3.03;;;0.70;99.90;;;;;;5025385;28;20996;-63
2023/03/11 03:54:35;;;;;;;8.52;3.05;;;0.80;99.90;;;;;;5030152;28;20945;-63
2023/03/11 03:57:02;;;;;;;11.88;2.97;;;0.80;99.90;;;;;;5031709;28;20422;-63
2023/03/11 03:59:29;;;;;;;11.63;3.05;;;0.70;99.90;;;;;;5028544;28;20417;-62
2023/03/11 04:01:56;;;;;;;9.00;3.20;;;0.70;99.90;;;;;;5025840;28;20412;-62
2023/03/11 04:04:23;;;;;;;12.77;3.42;;;0.70;99.90;;;;;;5012425;28;20424;-62
2023/03/11 04:06:49;;;;;;;10.30;3.30;;;0.70;99.90;;;;;;5012096;28;20475;-63
2023/03/11 04:09:18;;;;;;;13.48;3.47;;;0.80;99.90;;;;;;5011684;28;20467;-63
2023/03/11 04:11:45;;;;;;;11.57;3.15;;;0.90;99.90;;;;;;5013231;28;20428;-63
2023/03/11 04:14:11;;;;;;;8.95;2.80;;;1.00;99.90;;;;;;5031573;28;20830;-63
2023/03/11 04:16:38;;;;;;;10.13;3.10;;;1.10;99.90;;;;;;5013122;28;20416;-62
2023/03/11 04:19:05;;;;;;;10.23;3.20;;;1.00;99.90;;;;;;5021981;28;20476;-63
2023/03/11 04:21:32;;;;;;;8.15;2.88;;;1.00;99.90;;;;;;5012011;28;20491;-62
2023/03/11 04:23:59;;;;;;;10.30;3.38;;;1.10;99.90;;;;;;5024325;28;20469;-63
2023/03/11 04:26:28;;;;;;;9.30;2.60;;;1.00;99.90;;;;;;5025899;28;20414;-63
2023/03/11 04:28:54;;;;;;;10.63;3.20;;;1.10;99.90;;;;;;5023281;28;20504;-63
2023/03/11 04:31:21;;;;;;;8.87;2.90;;;1.10;99.90;;;;;;5014003;28;20424;-63
2023/03/11 04:33:48;;;;;;;11.52;3.17;;;1.10;99.90;;;;;;5020073;28;20446;-63
2023/03/11 04:36:15;;;;;;;9.98;3.10;;;1.00;99.90;;;;;;5011697;28;20413;-63
2023/03/11 04:38:41;;;;;;;12.80;2.88;;;0.90;99.90;;;;;;5015157;28;20416;-61
2023/03/11 04:41:08;;;;;;;9.13;2.97;;;1.00;99.90;;;;;;5026834;28;20428;-63
2023/03/11 04:43:36;;;;;;;7.00;2.83;;;1.10;99.90;;;;;;5020187;28;20514;-63
2023/03/11 04:46:03;;;;;;;8.00;2.97;;;1.10;99.90;;;;;;5031066;28;20415;-61
2023/03/11 04:48:29;;;;;;;10.93;3.00;;;1.20;99.90;;;;;;5031212;28;20773;-63
2023/03/11 04:50:56;;;;;;;10.85;2.80;;;1.20;99.90;;;;;;5016804;28;20417;-63
2023/03/11 04:53:23;;;;;;;7.30;3.08;;;1.30;99.90;;;;;;5027726;28;20430;-63
2023/03/11 04:55:51;;;;;;;10.88;2.85;;;1.30;99.90;;;;;;5030732;28;20471;-62
2023/03/11 04:58:17;;;;;;;8.02;2.60;;;1.20;99.90;;;;;;5022794;28;20421;-63
2023/03/11 05:00:46;;;;;;;7.75;2.83;;;1.10;99.90;;;;;;5013093;28;20413;-63
2023/03/11 05:03:12;;;;;;;8.60;3.00;;;1.20;99.90;;;;;;5030941;28;20557;-63
2023/03/11 05:05:39;;;;;;;8.55;2.50;;;1.30;99.90;;;;;;5010894;28;20417;-63
2023/03/11 05:08:06;;;;;;;6.80;2.53;;;1.30;99.90;;;;;;5010991;28;20486;-63
2023/03/11 05:10:33;;;;;;;8.13;2.85;;;1.30;99.90;;;;;;5010648;28;20455;-63
2023/03/11 05:12:59;;;;;;;9.23;2.90;;;1.20;99.90;;;;;;5010875;28;20432;-63
2023/03/11 05:15:27;;;;;;;5.47;2.53;;;1.30;99.90;;;;;;5010970;28;20420;-63
2023/03/11 05:17:55;;;;;;;10.27;3.40;;;1.20;99.90;;;;;;5010623;28;20471;-63
2023/03/11 05:20:22;;;;;;;11.10;2.72;;;1.20;99.90;;;;;;5010058;28;20412;-63
2023/03/11 05:22:49;;;;;;;8.45;2.85;;;1.20;99.90;;;;;;5016846;28;20413;-63
2023/03/11 05:25:16;;;;;;;10.32;2.65;;;1.10;99.90;;;;;;5030004;28;20419;-63
2023/03/11 05:27:43;;;;;;;11.35;3.33;;;1.10;99.90;;;;;;5030369;28;20422;-63
2023/03/11 05:30:11;;;;;;;9.15;2.78;;;1.20;99.90;;;;;;5023350;28;20422;-62
2023/03/11 05:32:38;;;;;;;9.77;2.80;;;1.10;99.90;;;;;;5019405;28;20427;-63
2023/03/11 05:35:07;;;;;;;9.93;2.90;;;1.00;99.90;;;;;;5018269;28;20417;-63
2023/03/11 05:37:34;;;;;;;7.45;2.88;;;1.00;99.90;;;;;;5024264;28;20415;-63
2023/03/11 05:40:00;;;;;;;10.75;2.78;;;1.10;99.90;;;;;;5019003;28;20478;-60
2023/03/11 05:42:27;;;;;;;8.85;2.70;;;1.10;99.90;;;;;;5020636;28;20416;-63
2023/03/11 05:44:54;;;;;;;12.90;2.40;;;1.20;99.90;;;;;;5010594;28;20475;-63
2023/03/11 05:47:20;;;;;;;10.20;3.20;;;1.00;99.90;;;;;;5015551;28;20420;-63
2023/03/11 05:49:48;;;;;;;8.38;2.60;;;1.10;99.90;;;;;;5019197;28;20468;-63
2023/03/11 05:52:16;;;;;;;10.20;2.70;;;1.10;99.90;;;;;;5029867;28;20426;-63
2023/03/11 05:54:43;;;;;;;10.38;3.22;;;1.10;99.90;;;;;;5025237;28;20898;-63
2023/03/11 05:57:10;;;;;;;8.93;2.58;;;1.10;99.90;;;;;;5022760;28;20421;-63
2023/03/11 05:59:37;;;;;;;7.13;2.40;;;1.20;99.90;;;;;;5020910;28;20475;-63
2023/03/11 06:02:04;;;;;;;10.85;2.78;;;1.20;99.90;;;;;;5017056;28;20953;-63
2023/03/11 06:04:30;;;;;;;11.05;2.70;;;1.20;99.90;;;;;;5015021;28;20465;-63
2023/03/11 06:06:57;;;;;;;7.87;2.73;;;1.30;99.90;;;;;;5026197;28;20415;-63
2023/03/11 06:09:25;;;;;;;8.02;2.58;;;1.30;99.90;;;;;;5026112;28;20889;-63
2023/03/11 06:11:52;;;;;;;5.45;2.30;;;1.30;99.90;;;;;;5022790;28;20428;-63
2023/03/11 06:14:19;;;;;;;10.00;2.70;;;1.30;99.90;;;;;;5026364;28;20471;-63
2023/03/11 06:16:45;;;;;;;7.35;2.67;;;1.20;99.90;;;;;;5010270;28;20451;-63
2023/03/11 06:19:12;;;;;;;8.35;2.65;;;1.30;99.90;;;;;;5010118;28;20891;-63
2023/03/11 06:21:39;;;;;;;6.75;2.40;;;1.30;99.90;;;;;;5021377;28;20420;-63
2023/03/11 06:24:07;;;;;;;10.57;2.67;;;1.40;99.90;;;;;;5026990;28;20419;-63
2023/03/11 06:26:35;;;;;;;6.70;2.60;;;1.50;99.90;;;;;;5029934;28;20500;-63
2023/03/11 06:29:01;;;;;;;12.25;2.90;;;1.50;99.70;;;;;;5025022;28;20520;-63
2023/03/11 06:31:29;;;;;;;11.15;2.60;;;1.50;97.20;;;;;;5014781;28;20440;-63
2023/03/11 06:33:57;;;;;;;7.68;2.22;;;1.40;95.20;;;;;;5017369;28;20464;-63
2023/03/11 06:36:24;;;;;;;8.40;2.58;;;1.40;91.30;;;;;;5013458;28;20906;-63
2023/03/11 06:38:52;;;;;;;7.45;2.75;;;1.40;90.20;;;;;;5028685;28;20468;-63
2023/03/11 06:41:18;;;;;;;9.53;2.80;;;1.40;85.40;;;;;;5016573;28;20424;-63
2023/03/11 06:43:46;;;;;;;9.95;2.63;;;1.30;70.90;;;;;;5027728;28;20836;-63
2023/03/11 06:46:17;;;;;;;8.55;2.80;;;1.20;69.00;;;;;;5022580;28;20479;-63
2023/03/11 06:48:44;;;;;;;10.27;2.63;;;1.10;70.80;;;;;;5023796;28;20478;-63
2023/03/11 06:51:11;;;;;;;8.93;2.65;;;1.10;78.50;;;;;;5029535;28;20826;-63
2023/03/11 06:53:38;;;;;;;8.77;2.70;;;1.10;80.00;;;;;;5032416;28;20427;-62
2023/03/11 06:56:07;;;;;;;9.07;2.70;;;1.20;85.50;;;;;;5033075;28;20892;-63
2023/03/11 06:58:35;;;;;;;9.20;2.78;;;1.30;90.80;;;;;;5022107;28;20415;-62
2023/03/11 07:01:05;;;;;;;9.32;3.42;;;1.30;93.20;;;;;;5026465;28;20422;-63
2023/03/11 07:03:31;;;;;;;8.68;2.90;;;1.50;94.80;;;;;;5026885;28;20408;-63
2023/03/11 07:05:59;;;;;;;6.88;2.60;;;1.50;94.60;;;;;;5021950;28;20426;-62
2023/03/11 07:08:26;;;;;;;9.60;2.83;;;1.60;92.00;;;;;;5018401;28;20416;-63
2023/03/11 07:11:04;;;;;;;10.43;3.13;;;1.70;89.40;;;;;;5022754;28;20417;-63
2023/03/11 07:13:31;;;;;;;6.25;2.40;;;1.80;84.40;;;;;;5020174;28;21097;-63
2023/03/11 07:16:04;;;;;;;7.45;2.63;;;1.80;65.70;;;;;;5019945;28;20415;-63
2023/03/11 07:18:31;;;;;;;8.65;3.15;;;1.80;56.20;;;;;;5014974;28;20417;-63
2023/03/11 07:20:57;;;;;;;7.10;2.83;;;1.80;52.90;;;;;;5032699;28;20419;-60
2023/03/11 07:23:24;;;;;;;9.30;2.95;;;1.80;55.50;;;;;;5030474;28;20905;-63
2023/03/11 07:25:51;;;;;;;9.55;3.15;;;1.90;57.00;;;;;;5027845;28;20496;-63
2023/03/11 07:28:18;;;;;;;6.93;3.40;;;1.90;52.40;;;;;;5024847;28;20416;-63
2023/03/11 07:30:45;;;;;;;9.43;2.90;;;2.00;49.40;;;;;;5018404;28;20423;-62
2023/03/11 07:33:13;;;;;;;7.50;2.92;;;2.00;44.70;;;;;;5021662;28;20436;-63
2023/03/11 07:35:40;;;;;;;6.20;2.70;;;2.10;39.10;;;;;;5025286;28;20423;-64
2023/03/11 07:38:07;;;;;;;8.40;2.90;;;2.00;38.00;;;;;;5024949;28;20418;-63
2023/03/11 07:40:34;;;;;;;8.75;3.13;;;2.10;41.70;;;;;;5023640;28;20418;-64
2023/03/11 07:43:00;;;;;;;10.10;2.92;;;2.10;28.10;;;;;;5021314;28;20463;-64
2023/03/11 07:45:27;;;;;;;8.65;2.63;;;2.00;18.90;;;;;;5024921;28;20441;-64
2023/03/11 07:47:54;;;;;;;8.07;2.80;;;2.10;16.50;;;;;;5012289;28;20408;-65
2023/03/11 07:50:22;;;;;;;8.20;2.50;;;2.10;23.00;;;;;;5012137;28;20902;-64
2023/03/11 07:52:49;;;;;;;8.43;2.65;;;2.10;1.00;;;;;;5014251;28;20431;-64
2023/03/11 07:55:16;;;;;;;8.57;2.72;;;2.10;1.00;;;;;;5028677;28;20415;-63
2023/03/11 07:57:43;;;;;;;7.78;2.63;;;2.10;1.00;;;;;;5026160;28;20475;-64
2023/03/11 08:00:11;;;;;;;7.43;2.73;;;2.00;5.20;;;;;;5023451;28;20551;-64
2023/03/11 08:02:38;;;;;;;9.70;2.83;;;2.20;14.80;;;;;;5012433;28;20479;-63
2023/03/11 08:05:05;;;;;;;8.88;2.88;;;2.20;1.00;;;;;;5024582;28;20424;-64
2023/03/11 08:07:33;;;;;;;7.15;2.90;;;2.20;1.00;;;;;;5024913;28;20421;-64
2023/03/11 08:10:00;;;;;;;11.23;3.28;;;2.30;1.00;;;;;;5019392;28;20479;-64
2023/03/11 08:12:27;;;;;;;7.35;2.42;;;2.30;1.00;;;;;;5019358;28;20415;-64
2023/03/11 08:14:54;;;;;;;6.05;2.75;;;2.20;1.00;;;;;;5022853;28;20414;-64
2023/03/11 08:17:20;;;;;;;9.48;2.42;;;2.20;1.00;;;;;;5011808;28;20761;-63
2023/03/11 08:19:49;;;;;;;10.30;3.05;;;2.20;1.00;;;;;;5011919;28;20769;-64
2023/03/11 08:22:16;;;;;;;9.37;2.90;;;2.20;1.00;;;;;;5011457;28;20424;-64
2023/03/11 08:24:44;;;;;;;8.38;2.50;;;2.30;1.00;;;;;;5022971;28;20477;-64
2023/03/11 08:27:11;;;;;;;7.85;2.45;;;2.30;1.00;;;;;;5018721;28;20425;-64
2023/03/11 08:29:37;;;;;;;7.28;2.50;;;2.50;1.00;;;;;;5018922;28;20424;-64
2023/03/11 08:32:05;;;;;;;10.07;2.75;;;2.50;1.00;;;;;;5019193;28;20429;-64
2023/03/11 08:34:33;;;;;;;8.18;2.70;;;2.40;1.00;;;;;;5017911;28;20941;-63
2023/03/11 08:37:00;;;;;;;6.75;2.78;;;2.60;1.00;;;;;;5032771;28;20417;-64
2023/03/11 08:39:27;;;;;;;6.38;2.95;;;2.70;1.00;;;;;;5026764;28;20419;-63
2023/03/11 08:41:55;;;;;;;8.77;2.50;;;2.80;1.00;;;;;;5024962;28;20486;-64
2023/03/11 08:44:22;;;;;;;10.07;2.80;;;2.90;1.00;;;;;;5027085;28;20415;-63
2023/03/11 08:46:49;;;;;;;8.23;2.40;;;2.90;1.00;;;;;;5019412;28;20425;-62
2023/03/11 08:49:15;;;;;;;5.85;2.72;;;3.20;1.00;;;;;;5019941;28;20917;-63
2023/03/11 08:51:42;;;;;;;7.25;2.55;;;3.20;1.00;;;;;;5018900;28;20459;-63
2023/03/11 08:54:09;;;;;;;4.20;2.15;;;3.10;1.00;;;;;;5025457;28;20435;-65
2023/03/11 08:56:36;;;;;;;7.55;2.78;;;3.30;1.00;;;;;;5024206;28;20420;-64
2023/03/11 08:59:04;;;;;;;5.28;2.60;;;4.00;1.00;;;;;;5018155;28;20421;-62
2023/03/11 09:01:30;;;;;;;6.20;2.28;;;3.50;99.90;;;;;;5017977;28;20775;-61
2023/03/11 09:03:57;;;;;;;5.25;1.90;;;3.50;99.90;;;;;;5018828;28;20424;-61
2023/03/11 09:06:24;;;;;;;6.13;2.53;;;3.40;99.90;;;;;;5022470;28;20899;-61
2023/03/11 09:08:51;;;;;;;6.82;2.78;;;3.40;99.90;;;;;;5022712;28;20422;-62
2023/03/11 09:11:20;;;;;;;6.33;2.37;;;3.30;99.90;;;;;;5024663;28;20436;-61
2023/03/11 09:13:47;;;;;;;7.68;2.30;;;3.50;99.90;;;;;;5019154;28;20930;-61
2023/03/11 09:16:17;;;;;;;10.52;2.40;;;3.40;99.90;;;;;;5020773;28;20422;-61
2023/03/11 09:18:44;;;;;;;4.65;1.60;;;3.40;99.90;;;;;;5021290;28;20446;-61
2023/03/11 09:21:11;;;;;;;5.53;1.65;;;3.40;1.00;;;;;;5018575;28;20900;-60
2023/03/11 09:23:38;;;;;;;6.38;2.33;;;3.50;99.90;;;;;;5024977;28;20407;-61
2023/03/11 09:26:05;;;;;;;3.45;1.70;;;3.50;1.00;;;;;;5020786;28;20424;-59
2023/03/11 09:28:32;;;;;;;6.00;1.90;;;3.40;99.90;;;;;;5021050;28;20457;-61
2023/03/11 09:30:58;;;;;;;6.55;1.73;;;3.40;1.00;;;;;;5020591;28;20419;-61
2023/03/11 09:33:26;;;;;;;5.55;1.95;;;3.50;1.00;;;;;;5018006;28;20429;-59
2023/03/11 09:35:53;;;;;;;4.63;1.37;;;3.60;1.00;;;;;;5016893;28;20990;-61
2023/03/11 09:38:20;;;;;;;4.50;1.05;;;3.30;60.90;;;;;;5025866;28;21053;-61
2023/03/11 09:40:56;;;;;;;2.72;1.50;;;3.30;99.90;;;;;;5026532;28;20754;-60
2023/03/11 09:43:38;;;;;;;6.43;1.67;;;3.40;1.00;;;;;;5021281;28;20415;-61
2023/03/11 09:46:23;;;;;;;4.27;1.57;;;3.30;1.00;;;;;;5020690;28;20512;-61
2023/03/11 09:48:56;;;;;;;4.93;1.60;;;3.30;99.90;;;;;;5021073;28;20795;-62
2023/03/11 09:51:27;;;;;;;4.43;1.50;;;3.30;1.00;;;;;;5021148;28;20453;-62
2023/03/11 09:53:56;;;;;;;4.93;1.53;;;3.50;99.90;;;;;;5017203;28;20450;-62
2023/03/11 09:56:23;;;;;;;3.88;1.20;;;3.70;1.00;;;;;;5021640;28;20817;-63
2023/03/11 09:58:52;;;;;;;5.55;1.33;;;3.70;99.90;;;;;;5020881;28;20423;-62
2023/03/11 10:01:25;;;;;;;5.07;1.77;;;3.50;1.00;;;;;;5021205;28;20476;-64
2023/03/11 10:03:56;;;;;;;6.63;2.20;;;3.70;40.30;;;;;;5018762;28;20420;-61
2023/03/11 10:06:24;;;;;;;6.43;1.65;;;3.70;1.00;;;;;;5019169;28;20509;-63
2023/03/11 10:08:59;;;;;;;4.32;1.70;;;3.60;1.00;;;;;;5022853;28;20486;-64
2023/03/11 10:11:45;;;;;;;5.93;2.20;;;3.80;1.00;;;;;;5022044;28;20476;-63
2023/03/11 10:14:44;;;;;;;4.28;1.67;;;5.30;1.00;;;;;;5022531;28;20435;-64
2023/03/11 10:17:19;;;;;;;3.80;1.43;;;3.80;1.00;;;;;;5021608;28;20412;-65
2023/03/11 10:19:52;;;;;;;4.43;1.70;;;3.50;99.90;;;;;;5021123;28;20420;-65
2023/03/11 10:22:27;;;;;;;5.47;1.40;;;3.50;99.90;;;;;;5015095;28;20467;-65
2023/03/11 10:25:05;;;;;;;6.28;1.98;;;3.50;99.90;;;;;;5024609;28;20408;-62
2023/03/11 10:27:40;;;;;;;4.93;1.60;;;3.60;1.00;;;;;;5034455;28;20411;-63
2023/03/11 10:30:16;;;;;;;4.47;1.40;;;3.70;1.00;;;;;;5031233;28;20461;-63
2023/03/11 10:32:49;;;;;;;4.05;1.50;;;3.80;1.00;;;;;;5033788;28;20464;-61
2023/03/11 10:35:21;;;;;;;4.75;1.52;;;3.90;1.00;;;;;;5033248;28;20461;-63
2023/03/11 10:37:52;;;;;;;2.72;1.50;;;4.00;1.00;;;;;;5033641;28;20422;-63
2023/03/11 10:40:28;;;;;;;5.38;1.77;;;4.10;1.00;;;;;;5033633;28;20419;-63
2023/03/11 10:42:56;;;;;;;5.05;1.23;;;4.40;1.00;;;;;;5035810;28;20469;-64
2023/03/11 10:45:25;;;;;;;5.60;1.33;;;4.50;99.90;;;;;;5035924;28;20419;-64
2023/03/11 10:47:51;;;;;;;6.32;1.23;;;4.70;1.00;;;;;;5016852;28;20421;-63
2023/03/11 10:50:20;;;;;;;5.00;1.55;;;4.80;1.00;;;;;;5014182;28;20424;-64
2023/03/11 10:53:06;;;;;;;3.90;1.73;;;4.90;99.90;;;;;;5016486;28;20523;-64
2023/03/11 10:55:33;;;;;;;5.57;1.70;;;4.90;99.90;;;;;;5033795;28;20427;-63
2023/03/11 10:58:11;;;;;;;3.38;1.55;;;5.00;99.90;;;;;;5033437;28;20411;-63
2023/03/11 11:00:38;;;;;;;3.08;1.30;;;4.90;1.00;;;;;;5030538;28;20419;-64
2023/03/11 11:03:12;;;;;;;3.58;1.80;;;4.60;99.90;;;;;;5025815;28;20478;-61
2023/03/11 11:05:41;;;;;;;7.05;2.30;;;4.30;99.90;;;;;;5014328;28;20584;-62
2023/03/11 11:08:13;;;;;;;4.65;1.77;;;4.40;1.00;;;;;;5018301;28;20517;-62
2023/03/11 11:10:50;;;;;;;3.33;1.67;;;4.50;99.90;;;;;;5031659;28;20453;-62
2023/03/11 11:13:19;;;;;;;4.15;1.35;;;4.60;1.00;;;;;;5019863;28;20620;-61
2023/03/11 11:15:55;;;;;;;5.60;1.60;;;4.70;1.00;;;;;;5013438;28;20417;-61
2023/03/11 11:18:26;;;;;;;2.80;1.73;;;4.60;1.00;;;;;;5013339;28;20495;-62
2023/03/11 11:20:59;;;;;;;3.83;2.20;;;4.50;1.00;;;;;;5026111;28;20415;-62
2023/03/11 11:23:31;;;;;;;5.10;2.13;;;4.40;1.00;;;;;;5021849;28;20431;-62
2023/03/11 11:25:59;;;;;;;5.07;1.85;;;4.20;1.00;;;;;;5020750;28;20445;-61
2023/03/11 11:28:26;;;;;;;3.83;1.80;;;3.90;1.00;;;;;;5031998;28;20422;-61
2023/03/11 11:30:55;;;;;;;3.50;2.05;;;3.80;99.90;;;;;;5012923;28;20417;-61
2023/03/11 11:33:25;;;;;;;8.10;1.92;;;3.70;1.00;;;;;;5019955;28;20423;-61
2023/03/11 11:35:55;;;;;;;6.15;2.08;;;3.70;1.00;;;;;;5027121;28;20441;-62
2023/03/11 11:38:24;;;;;;;3.05;1.52;;;3.80;99.90;;;;;;5020036;28;20815;-64
2023/03/11 11:40:51;;;;;;;3.92;1.77;;;4.10;1.00;;;;;;5025506;28;20415;-64
2023/03/11 11:43:19;;;;;;;3.60;1.17;;;4.30;99.90;;;;;;5033449;28;20505;-61
2023/03/11 11:45:49;;;;;;;2.70;1.70;;;4.50;99.90;;;;;;5030606;28;20907;-61
2023/03/11 11:48:20;;;;;;;6.22;1.67;;;4.70;99.90;;;;;;5031902;28;20956;-60
2023/03/11 11:50:52;;;;;;;5.40;1.70;;;4.80;99.90;;;;;;5020465;28;20412;-60
2023/03/11 11:53:31;;;;;;;4.43;1.90;;;5.10;99.90;;;;;;5031072;28;20479;-60
2023/03/11 11:55:58;;;;;;;5.38;1.90;;;5.20;1.00;;;;;;5021952;28;20425;-62
2023/03/11 11:58:25;;;;;;;4.88;1.70;;;5.40;99.90;;;;;;5022925;28;20415;-58
2023/03/11 12:01:03;;;;;;;4.68;2.08;;;5.60;99.90;;;;;;5021056;28;20412;-60
2023/03/11 12:04:22;;;;;;;4.10;1.75;;;5.40;99.90;;;;;;5011681;28;20428;-60
2023/03/11 12:06:59;;;;;;;5.37;1.90;;;5.60;99.90;;;;;;5021940;28;20419;-61
2023/03/11 12:09:32;;;;;;;5.25;1.95;;;5.60;99.90;;;;;;5011284;28;20867;-60
2023/03/11 12:12:08;;;;;;;6.17;1.80;;;5.60;99.90;;;;;;5011458;28;20416;-62
2023/03/11 12:14:41;;;;;;;2.92;1.83;;;6.00;99.90;;;;;;5011233;28;20977;-61
2023/03/11 12:17:10;;;;;;;4.38;1.80;;;6.00;99.90;;;;;;5020652;28;20417;-60
2023/03/11 12:19:43;;;;;;;5.47;2.00;;;5.80;99.90;;;;;;5019406;28;20788;-60
2023/03/11 12:22:39;;;;;;;3.83;2.08;;;5.30;99.90;;;;;;5021565;28;20441;-64
2023/03/11 12:25:27;;;;;;;5.13;2.30;;;5.20;99.90;;;;;;5017882;28;20424;-63
2023/03/11 12:28:03;;;;;;;5.45;2.70;;;5.20;99.90;;;;;;5019503;28;20420;-62
2023/03/11 12:30:32;;;;;;;3.35;2.28;;;5.10;99.90;;;;;;5015644;28;20419;-64
2023/03/11 12:33:02;;;;;;;4.53;2.22;;;4.90;99.90;;;;;;5020621;28;20478;-64
2023/03/11 12:35:31;;;;;;;4.15;2.10;;;4.90;99.90;;;;;;5019488;28;20445;-63
2023/03/11 12:38:05;;;;;;;7.05;1.73;;;5.10;99.90;;;;;;5021522;28;20841;-65
2023/03/11 12:41:02;;;;;;;4.72;1.77;;;5.20;99.90;;;;;;5021441;28;20501;-63
2023/03/11 12:43:58;;;;;;;11.57;4.13;;;5.20;99.90;;;;;;4986453;28;20425;-66
2023/03/11 12:47:08;;;;;;;4.50;1.70;;;5.30;99.90;;;;;;5022072;28;20407;-66
2023/03/11 12:49:37;;;;;;;5.38;1.88;;;5.60;99.90;;;;;;5021866;28;20493;-66
2023/03/11 12:52:18;;;;;;;5.63;1.60;;;5.80;99.90;;;;;;5015406;28;20428;-66
2023/03/11 12:54:47;;;;;;;5.18;1.77;;;5.80;99.90;;;;;;5022227;28;20512;-68
2023/03/11 12:57:34;;;;;;;4.93;1.20;;;5.90;99.90;;;;;;5021933;28;20418;-61
2023/03/11 13:00:21;;;;;;;6.70;1.38;;;6.30;99.90;;;;;;5016035;28;20904;-61
2023/03/11 13:03:15;;;;;;;2.33;1.10;;;6.50;99.90;;;;;;5019459;28;20424;-62
2023/03/11 13:05:57;;;;;;;3.85;1.20;;;6.60;99.90;;;;;;4999920;28;20428;-62
2023/03/11 13:08:26;;;;;;;3.20;1.17;;;6.30;99.90;;;;;;5020140;28;20449;-62
2023/03/11 13:10:53;;;;;;;3.63;1.40;;;5.90;99.90;;;;;;5018692;28;20523;-63